sensor_id;sensor_type;location;lat;lon;timestamp;temperature;humidity
10386;DHT22;34307;51.332;12.334;2023-06-22T00:01:35;21.30;99.90
10386;DHT22;34307;51.332;12.334;2023-06-22T00:04:03;21.30;99.90
10386;DHT22;34307;51.332;12.334;2023-06-22T00:06:31;21.30;99.90
10386;DHT22;34307;51.332;12.334;2023-06-22T00:08:59;21.30;99.90
10386;DHT22;34307;51.332;12.334;2023-06-22T00:11:27;21.30;99.90
10386;DHT22;34307;51.332;12.334;2023-06-22T00:13:55;21.30;99.90
10386;DHT22;34307;51.332;12.334;2023-06-22T00:16:25;21.30;99.90
10386;DHT22;34307;51.332;12.334;2023-06-22T00:18:52;21.30;99.90
10386;DHT22;34307;51.332;12.334;2023-06-22T00:21:20;21.30;99.90
10386;DHT22;34307;51.332;12.334;2023-06-22T00:23:50;21.20;99.90
10386;DHT22;34307;51.332;12.334;2023-06-22T00:26:18;21.20;99.90
10386;DHT22;34307;51.332;12.334;2023-06-22T00:28:47;21.20;99.90
10386;DHT22;34307;51.332;12.334;2023-06-22T00:31:15;21.20;99.90
10386;DHT22;34307;51.332;12.334;2023-06-22T00:33:45;21.20;99.90
10386;DHT22;34307;51.332;12.334;2023-06-22T00:36:14;21.20;99.90
10386;DHT22;34307;51.332;12.334;2023-06-22T00:38:44;21.20;99.90
10386;DHT22;34307;51.332;12.334;2023-06-22T00:41:12;21.00;99.90
10386;DHT22;34307;51.332;12.334;2023-06-22T00:43:40;21.00;99.90
10386;DHT22;34307;51.332;12.334;2023-06-22T00:46:09;20.90;99.90
10386;DHT22;34307;51.332;12.334;2023-06-22T00:48:37;20.90;99.90
10386;DHT22;34307;51.332;12.334;2023-06-22T00:51:08;20.90;99.90
10386;DHT22;34307;51.332;12.334;2023-06-22T00:53:35;20.90;99.90
10386;DHT22;34307;51.332;12.334;2023-06-22T00:56:05;20.80;99.90
10386;DHT22;34307;51.332;12.334;2023-06-22T00:58:36;20.80;99.90
10386;DHT22;34307;51.332;12.334;2023-06-22T01:01:04;20.80;99.90
10386;DHT22;34307;51.332;12.334;2023-06-22T01:03:33;20.70;99.90
10386;DHT22;34307;51.332;12.334;2023-06-22T01:06:05;20.60;99.90
10386;DHT22;34307;51.332;12.334;2023-06-22T01:08:42;20.60;99.90
10386;DHT22;34307;51.332;12.334;2023-06-22T01:11:16;20.60;99.90
10386;DHT22;34307;51.332;12.334;2023-06-22T01:13:48;20.60;99.90
10386;DHT22;34307;51.332;12.334;2023-06-22T01:16:23;20.50;99.90
10386;DHT22;34307;51.332;12.334;2023-06-22T01:18:55;20.50;99.90
10386;DHT22;34307;51.332;12.334;2023-06-22T01:21:25;20.50;99.90
10386;DHT22;34307;51.332;12.334;2023-06-22T01:24:10;20.40;99.90
10386;DHT22;34307;51.332;12.334;2023-06-22T01:26:54;20.40;99.90
10386;DHT22;34307;51.332;12.334;2023-06-22T01:29:27;20.30;99.90
10386;DHT22;34307;51.332;12.334;2023-06-22T01:31:57;20.30;99.90
10386;DHT22;34307;51.332;12.334;2023-06-22T01:34:27;20.30;99.90
10386;DHT22;34307;51.332;12.334;2023-06-22T01:36:57;20.20;99.90
10386;DHT22;34307;51.332;12.334;2023-06-22T01:39:26;20.20;99.90
10386;DHT22;34307;51.332;12.334;2023-06-22T01:41:56;20.30;99.90
10386;DHT22;34307;51.332;12.334;2023-06-22T01:44:26;20.20;99.90
10386;DHT22;34307;51.332;12.334;2023-06-22T01:46:56;20.20;99.90
10386;DHT22;34307;51.332;12.334;2023-06-22T01:49:25;20.10;99.90
10386;DHT22;34307;51.332;12.334;2023-06-22T01:51:53;20.10;99.90
10386;DHT22;34307;51.332;12.334;2023-06-22T01:54:22;20.10;99.90
10386;DHT22;34307;51.332;12.334;2023-06-22T01:56:50;20.10;99.90
10386;DHT22;34307;51.332;12.334;2023-06-22T01:59:28;20.10;99.90
10386;DHT22;34307;51.332;12.334;2023-06-22T02:02:02;20.10;99.90
10386;DHT22;34307;51.332;12.334;2023-06-22T02:04:35;20.10;99.90
10386;DHT22;34307;51.332;12.334;2023-06-22T02:07:10;20.10;99.90
10386;DHT22;34307;51.332;12.334;2023-06-22T02:09:42;20.00;99.90
10386;DHT22;34307;51.332;12.334;2023-06-22T02:12:12;20.00;99.90
10386;DHT22;34307;51.332;12.334;2023-06-22T02:14:43;19.90;99.90
10386;DHT22;34307;51.332;12.334;2023-06-22T02:17:13;19.90;99.90
10386;DHT22;34307;51.332;12.334;2023-06-22T02:19:41;19.90;99.90
10386;DHT22;34307;51.332;12.334;2023-06-22T02:22:10;19.90;99.90
10386;DHT22;34307;51.332;12.334;2023-06-22T02:24:39;19.80;99.90
10386;DHT22;34307;51.332;12.334;2023-06-22T02:27:07;19.70;99.90
10386;DHT22;34307;51.332;12.334;2023-06-22T02:29:36;19.80;99.90
10386;DHT22;34307;51.332;12.334;2023-06-22T02:32:07;19.80;99.90
10386;DHT22;34307;51.332;12.334;2023-06-22T02:34:37;19.70;99.90
10386;DHT22;34307;51.332;12.334;2023-06-22T02:37:05;19.70;99.90
10386;DHT22;34307;51.332;12.334;2023-06-22T02:39:33;19.70;99.90
10386;DHT22;34307;51.332;12.334;2023-06-22T02:42:02;19.70;99.90
10386;DHT22;34307;51.332;12.334;2023-06-22T02:44:29;19.70;99.90
10386;DHT22;34307;51.332;12.334;2023-06-22T02:47:00;19.70;99.90
10386;DHT22;34307;51.332;12.334;2023-06-22T02:49:30;19.70;99.90
10386;DHT22;34307;51.332;12.334;2023-06-22T02:51:58;19.70;99.90
10386;DHT22;34307;51.332;12.334;2023-06-22T02:54:26;19.80;99.90
10386;DHT22;34307;51.332;12.334;2023-06-22T02:56:54;19.70;99.90
10386;DHT22;34307;51.332;12.334;2023-06-22T02:59:22;19.70;99.90
10386;DHT22;34307;51.332;12.334;2023-06-22T03:01:51;19.70;99.90
10386;DHT22;34307;51.332;12.334;2023-06-22T03:04:19;19.60;99.90
10386;DHT22;34307;51.332;12.334;2023-06-22T03:06:48;19.70;99.90
10386;DHT22;34307;51.332;12.334;2023-06-22T03:09:19;19.70;99.90
10386;DHT22;34307;51.332;12.334;2023-06-22T03:11:47;19.70;99.90
10386;DHT22;34307;51.332;12.334;2023-06-22T03:14:15;19.60;99.90
10386;DHT22;34307;51.332;12.334;2023-06-22T03:16:43;19.60;99.90
10386;DHT22;34307;51.332;12.334;2023-06-22T03:19:11;19.60;99.90
10386;DHT22;34307;51.332;12.334;2023-06-22T03:21:40;19.60;99.90
10386;DHT22;34307;51.332;12.334;2023-06-22T03:24:09;19.70;99.90
10386;DHT22;34307;51.332;12.334;2023-06-22T03:26:39;19.70;99.90
10386;DHT22;34307;51.332;12.334;2023-06-22T03:29:08;19.70;99.90
10386;DHT22;34307;51.332;12.334;2023-06-22T03:31:35;19.70;99.90
10386;DHT22;34307;51.332;12.334;2023-06-22T03:34:03;19.70;99.90
10386;DHT22;34307;51.332;12.334;2023-06-22T03:36:33;19.70;99.90
10386;DHT22;34307;51.332;12.334;2023-06-22T03:39:01;19.70;99.90
10386;DHT22;34307;51.332;12.334;2023-06-22T03:41:31;19.80;99.90
10386;DHT22;34307;51.332;12.334;2023-06-22T03:43:59;19.70;99.90
10386;DHT22;34307;51.332;12.334;2023-06-22T03:46:32;19.70;99.90
10386;DHT22;34307;51.332;12.334;2023-06-22T03:49:01;19.70;99.90
10386;DHT22;34307;51.332;12.334;2023-06-22T03:51:32;19.80;99.90
10386;DHT22;34307;51.332;12.334;2023-06-22T03:54:01;19.80;99.90
10386;DHT22;34307;51.332;12.334;2023-06-22T03:56:30;19.90;99.90
10386;DHT22;34307;51.332;12.334;2023-06-22T03:58:58;19.90;99.90
10386;DHT22;34307;51.332;12.334;2023-06-22T04:01:26;19.90;99.90
10386;DHT22;34307;51.332;12.334;2023-06-22T04:03:54;20.00;99.90
10386;DHT22;34307;51.332;12.334;2023-06-22T04:06:28;20.10;99.90
10386;DHT22;34307;51.332;12.334;2023-06-22T04:08:58;20.10;99.90
10386;DHT22;34307;51.332;12.334;2023-06-22T04:11:31;20.30;99.90
10386;DHT22;34307;51.332;12.334;2023-06-22T04:13:59;20.50;99.90
10386;DHT22;34307;51.332;12.334;2023-06-22T04:16:28;20.60;99.90
10386;DHT22;34307;51.332;12.334;2023-06-22T04:18:56;20.70;99.90
10386;DHT22;34307;51.332;12.334;2023-06-22T04:21:26;20.80;99.90
10386;DHT22;34307;51.332;12.334;2023-06-22T04:23:53;20.90;99.90
10386;DHT22;34307;51.332;12.334;2023-06-22T04:26:23;21.10;99.90
10386;DHT22;34307;51.332;12.334;2023-06-22T04:28:55;21.20;99.90
10386;DHT22;34307;51.332;12.334;2023-06-22T04:31:23;21.20;99.90
10386;DHT22;34307;51.332;12.334;2023-06-22T04:34:00;21.20;99.90
10386;DHT22;34307;51.332;12.334;2023-06-22T04:36:36;21.20;99.90
10386;DHT22;34307;51.332;12.334;2023-06-22T04:39:05;21.20;99.90
10386;DHT22;34307;51.332;12.334;2023-06-22T04:41:37;21.30;99.90
10386;DHT22;34307;51.332;12.334;2023-06-22T04:44:11;21.20;99.90
10386;DHT22;34307;51.332;12.334;2023-06-22T04:46:40;21.00;99.90
10386;DHT22;34307;51.332;12.334;2023-06-22T04:49:09;21.00;99.90
10386;DHT22;34307;51.332;12.334;2023-06-22T04:51:40;20.90;99.90
10386;DHT22;34307;51.332;12.334;2023-06-22T04:54:10;21.00;99.90
10386;DHT22;34307;51.332;12.334;2023-06-22T04:56:38;21.00;99.90
10386;DHT22;34307;51.332;12.334;2023-06-22T04:59:08;21.00;99.90
10386;DHT22;34307;51.332;12.334;2023-06-22T05:01:43;20.90;99.90
10386;DHT22;34307;51.332;12.334;2023-06-22T05:04:12;21.00;99.90
10386;DHT22;34307;51.332;12.334;2023-06-22T05:06:40;21.10;99.90
10386;DHT22;34307;51.332;12.334;2023-06-22T05:09:08;21.20;99.90
10386;DHT22;34307;51.332;12.334;2023-06-22T05:11:36;21.40;99.90
10386;DHT22;34307;51.332;12.334;2023-06-22T05:14:04;21.50;99.90
10386;DHT22;34307;51.332;12.334;2023-06-22T05:16:33;21.60;99.90
10386;DHT22;34307;51.332;12.334;2023-06-22T05:19:02;21.70;99.90
10386;DHT22;34307;51.332;12.334;2023-06-22T05:21:31;21.90;99.90
10386;DHT22;34307;51.332;12.334;2023-06-22T05:23:59;22.20;99.90
10386;DHT22;34307;51.332;12.334;2023-06-22T05:26:30;22.40;99.90
10386;DHT22;34307;51.332;12.334;2023-06-22T05:28:59;22.50;99.90
10386;DHT22;34307;51.332;12.334;2023-06-22T05:31:30;22.50;99.90
10386;DHT22;34307;51.332;12.334;2023-06-22T05:33:58;22.60;99.90
10386;DHT22;34307;51.332;12.334;2023-06-22T05:36:27;22.60;99.90
10386;DHT22;34307;51.332;12.334;2023-06-22T05:38:57;22.60;99.90
10386;DHT22;34307;51.332;12.334;2023-06-22T05:41:25;22.60;99.90
10386;DHT22;34307;51.332;12.334;2023-06-22T05:43:53;22.60;99.90
10386;DHT22;34307;51.332;12.334;2023-06-22T05:46:21;22.70;99.90
10386;DHT22;34307;51.332;12.334;2023-06-22T05:48:50;22.80;99.90
10386;DHT22;34307;51.332;12.334;2023-06-22T05:51:18;23.00;99.90
10386;DHT22;34307;51.332;12.334;2023-06-22T05:53:47;23.20;99.90
10386;DHT22;34307;51.332;12.334;2023-06-22T05:56:17;23.30;99.90
10386;DHT22;34307;51.332;12.334;2023-06-22T05:58:46;23.50;99.90
10386;DHT22;34307;51.332;12.334;2023-06-22T06:01:14;23.50;99.90
10386;DHT22;34307;51.332;12.334;2023-06-22T06:03:42;23.60;99.90
10386;DHT22;34307;51.332;12.334;2023-06-22T06:06:11;23.70;99.90
10386;DHT22;34307;51.332;12.334;2023-06-22T06:08:39;23.90;99.90
10386;DHT22;34307;51.332;12.334;2023-06-22T06:11:09;23.90;99.90
10386;DHT22;34307;51.332;12.334;2023-06-22T06:13:39;24.00;99.90
10386;DHT22;34307;51.332;12.334;2023-06-22T06:16:10;23.90;99.90
10386;DHT22;34307;51.332;12.334;2023-06-22T06:18:38;24.00;99.90
10386;DHT22;34307;51.332;12.334;2023-06-22T06:21:07;24.10;99.90
10386;DHT22;34307;51.332;12.334;2023-06-22T06:23:35;24.30;99.90
10386;DHT22;34307;51.332;12.334;2023-06-22T06:26:03;24.50;99.90
10386;DHT22;34307;51.332;12.334;2023-06-22T06:28:35;24.60;99.90
10386;DHT22;34307;51.332;12.334;2023-06-22T06:31:03;24.80;99.90
10386;DHT22;34307;51.332;12.334;2023-06-22T06:33:34;24.90;99.90
10386;DHT22;34307;51.332;12.334;2023-06-22T06:36:02;25.00;99.90
10386;DHT22;34307;51.332;12.334;2023-06-22T06:38:30;25.10;99.90
10386;DHT22;34307;51.332;12.334;2023-06-22T06:40:59;25.20;99.90
10386;DHT22;34307;51.332;12.334;2023-06-22T06:43:27;25.40;99.90
10386;DHT22;34307;51.332;12.334;2023-06-22T06:45:56;25.50;99.90
10386;DHT22;34307;51.332;12.334;2023-06-22T06:48:24;25.40;99.90
10386;DHT22;34307;51.332;12.334;2023-06-22T06:50:53;25.50;99.90
10386;DHT22;34307;51.332;12.334;2023-06-22T06:53:21;25.60;99.90
10386;DHT22;34307;51.332;12.334;2023-06-22T06:55:49;25.70;99.20
10386;DHT22;34307;51.332;12.334;2023-06-22T06:58:17;26.00;98.90
10386;DHT22;34307;51.332;12.334;2023-06-22T07:00:47;26.00;97.20
10386;DHT22;34307;51.332;12.334;2023-06-22T07:03:18;26.00;95.20
10386;DHT22;34307;51.332;12.334;2023-06-22T07:05:48;26.20;94.30
10386;DHT22;34307;51.332;12.334;2023-06-22T07:08:16;26.40;92.90
10386;DHT22;34307;51.332;12.334;2023-06-22T07:10:44;26.70;89.10
10386;DHT22;34307;51.332;12.334;2023-06-22T07:13:12;26.90;81.00
10386;DHT22;34307;51.332;12.334;2023-06-22T07:15:40;26.80;77.90
10386;DHT22;34307;51.332;12.334;2023-06-22T07:18:09;26.60;81.60
10386;DHT22;34307;51.332;12.334;2023-06-22T07:20:39;26.40;82.40
10386;DHT22;34307;51.332;12.334;2023-06-22T07:23:11;26.40;83.30
10386;DHT22;34307;51.332;12.334;2023-06-22T07:25:41;26.30;84.40
10386;DHT22;34307;51.332;12.334;2023-06-22T07:28:09;26.30;84.00
10386;DHT22;34307;51.332;12.334;2023-06-22T07:30:38;26.60;82.70
10386;DHT22;34307;51.332;12.334;2023-06-22T07:33:07;26.70;81.90
10386;DHT22;34307;51.332;12.334;2023-06-22T07:35:35;26.70;77.20
10386;DHT22;34307;51.332;12.334;2023-06-22T07:38:05;26.70;78.30
10386;DHT22;34307;51.332;12.334;2023-06-22T07:40:33;26.60;76.90
10386;DHT22;34307;51.332;12.334;2023-06-22T07:43:02;26.80;76.80
10386;DHT22;34307;51.332;12.334;2023-06-22T07:45:30;27.00;73.90
10386;DHT22;34307;51.332;12.334;2023-06-22T07:48:00;27.10;70.40
10386;DHT22;34307;51.332;12.334;2023-06-22T07:50:28;27.00;70.20
10386;DHT22;34307;51.332;12.334;2023-06-22T07:52:56;26.90;70.00
10386;DHT22;34307;51.332;12.334;2023-06-22T07:55:26;26.90;68.60
10386;DHT22;34307;51.332;12.334;2023-06-22T07:57:55;26.90;68.20
10386;DHT22;34307;51.332;12.334;2023-06-22T08:00:23;27.10;68.10
10386;DHT22;34307;51.332;12.334;2023-06-22T08:02:51;27.50;66.00
10386;DHT22;34307;51.332;12.334;2023-06-22T08:05:20;28.00;60.70
10386;DHT22;34307;51.332;12.334;2023-06-22T08:07:49;28.40;57.90
10386;DHT22;34307;51.332;12.334;2023-06-22T08:10:18;28.60;56.00
10386;DHT22;34307;51.332;12.334;2023-06-22T08:12:47;29.00;54.20
10386;DHT22;34307;51.332;12.334;2023-06-22T08:15:18;29.10;52.60
10386;DHT22;34307;51.332;12.334;2023-06-22T08:17:49;29.10;51.20
10386;DHT22;34307;51.332;12.334;2023-06-22T08:20:18;29.40;50.90
10386;DHT22;34307;51.332;12.334;2023-06-22T08:22:47;29.60;50.20
10386;DHT22;34307;51.332;12.334;2023-06-22T08:25:15;29.70;49.10
10386;DHT22;34307;51.332;12.334;2023-06-22T08:27:45;29.60;48.10
10386;DHT22;34307;51.332;12.334;2023-06-22T08:30:18;29.50;48.50
10386;DHT22;34307;51.332;12.334;2023-06-22T08:32:46;29.20;48.60
10386;DHT22;34307;51.332;12.334;2023-06-22T08:35:14;28.70;49.20
10386;DHT22;34307;51.332;12.334;2023-06-22T08:37:42;28.50;49.60
10386;DHT22;34307;51.332;12.334;2023-06-22T08:40:11;28.50;50.50
10386;DHT22;34307;51.332;12.334;2023-06-22T08:42:40;28.50;50.60
10386;DHT22;34307;51.332;12.334;2023-06-22T08:45:10;28.50;51.30
10386;DHT22;34307;51.332;12.334;2023-06-22T08:47:41;28.70;50.20
10386;DHT22;34307;51.332;12.334;2023-06-22T08:50:11;29.10;49.40
10386;DHT22;34307;51.332;12.334;2023-06-22T08:52:40;29.40;47.70
10386;DHT22;34307;51.332;12.334;2023-06-22T08:55:10;29.40;48.00
10386;DHT22;34307;51.332;12.334;2023-06-22T08:57:38;29.30;47.00
10386;DHT22;34307;51.332;12.334;2023-06-22T09:00:08;29.40;46.20
10386;DHT22;34307;51.332;12.334;2023-06-22T09:02:45;29.90;44.80
10386;DHT22;34307;51.332;12.334;2023-06-22T09:05:13;30.40;43.30
10386;DHT22;34307;51.332;12.334;2023-06-22T09:07:42;30.60;40.60
10386;DHT22;34307;51.332;12.334;2023-06-22T09:10:10;30.80;42.00
10386;DHT22;34307;51.332;12.334;2023-06-22T09:12:40;30.70;39.30
10386;DHT22;34307;51.332;12.334;2023-06-22T09:15:09;30.80;37.70
10386;DHT22;34307;51.332;12.334;2023-06-22T09:17:44;30.90;36.00
10386;DHT22;34307;51.332;12.334;2023-06-22T09:20:13;30.90;36.40
10386;DHT22;34307;51.332;12.334;2023-06-22T09:22:41;30.90;35.30
10386;DHT22;34307;51.332;12.334;2023-06-22T09:25:10;30.90;34.20
10386;DHT22;34307;51.332;12.334;2023-06-22T09:27:39;30.80;33.10
10386;DHT22;34307;51.332;12.334;2023-06-22T09:30:07;30.90;31.80
10386;DHT22;34307;51.332;12.334;2023-06-22T09:32:35;30.60;31.60
10386;DHT22;34307;51.332;12.334;2023-06-22T09:35:07;30.50;31.50
10386;DHT22;34307;51.332;12.334;2023-06-22T09:37:43;30.60;31.70
10386;DHT22;34307;51.332;12.334;2023-06-22T09:40:12;30.80;30.80
10386;DHT22;34307;51.332;12.334;2023-06-22T09:42:42;31.00;30.00
10386;DHT22;34307;51.332;12.334;2023-06-22T09:45:11;30.80;30.00
10386;DHT22;34307;51.332;12.334;2023-06-22T09:47:40;30.40;29.50
10386;DHT22;34307;51.332;12.334;2023-06-22T09:50:14;30.30;29.40
10386;DHT22;34307;51.332;12.334;2023-06-22T09:52:42;30.30;28.90
10386;DHT22;34307;51.332;12.334;2023-06-22T09:55:17;30.70;28.10
10386;DHT22;34307;51.332;12.334;2023-06-22T09:57:44;30.80;26.80
10386;DHT22;34307;51.332;12.334;2023-06-22T10:00:15;30.80;27.40
10386;DHT22;34307;51.332;12.334;2023-06-22T10:02:44;31.10;26.80
10386;DHT22;34307;51.332;12.334;2023-06-22T10:05:14;31.50;26.00
10386;DHT22;34307;51.332;12.334;2023-06-22T10:07:44;31.70;22.60
10386;DHT22;34307;51.332;12.334;2023-06-22T10:10:13;31.90;20.90
10386;DHT22;34307;51.332;12.334;2023-06-22T10:12:45;32.00;20.60
10386;DHT22;34307;51.332;12.334;2023-06-22T10:15:15;32.00;18.10
10386;DHT22;34307;51.332;12.334;2023-06-22T10:17:44;31.80;16.90
10386;DHT22;34307;51.332;12.334;2023-06-22T10:20:13;31.60;13.90
10386;DHT22;34307;51.332;12.334;2023-06-22T10:22:43;31.70;12.70
10386;DHT22;34307;51.332;12.334;2023-06-22T10:25:12;31.80;12.30
10386;DHT22;34307;51.332;12.334;2023-06-22T10:27:42;31.70;16.00
10386;DHT22;34307;51.332;12.334;2023-06-22T10:30:12;31.90;14.10
10386;DHT22;34307;51.332;12.334;2023-06-22T10:32:42;32.10;13.90
10386;DHT22;34307;51.332;12.334;2023-06-22T10:35:10;31.90;14.20
10386;DHT22;34307;51.332;12.334;2023-06-22T10:37:43;32.10;14.20
10386;DHT22;34307;51.332;12.334;2023-06-22T10:40:13;32.10;13.20
10386;DHT22;34307;51.332;12.334;2023-06-22T10:42:42;32.30;11.60
10386;DHT22;34307;51.332;12.334;2023-06-22T10:45:12;32.40;12.30
10386;DHT22;34307;51.332;12.334;2023-06-22T10:47:41;32.30;9.90
10386;DHT22;34307;51.332;12.334;2023-06-22T10:50:10;32.30;11.00
10386;DHT22;34307;51.332;12.334;2023-06-22T10:52:38;32.50;10.50
10386;DHT22;34307;51.332;12.334;2023-06-22T10:55:09;32.40;10.30
10386;DHT22;34307;51.332;12.334;2023-06-22T10:57:38;32.70;8.20
10386;DHT22;34307;51.332;12.334;2023-06-22T11:00:12;32.70;7.10
10386;DHT22;34307;51.332;12.334;2023-06-22T11:02:40;32.80;6.70
10386;DHT22;34307;51.332;12.334;2023-06-22T11:05:08;33.00;4.40
10386;DHT22;34307;51.332;12.334;2023-06-22T11:07:37;33.30;4.90
10386;DHT22;34307;51.332;12.334;2023-06-22T11:10:06;33.60;3.20
10386;DHT22;34307;51.332;12.334;2023-06-22T11:12:36;33.60;2.80
10386;DHT22;34307;51.332;12.334;2023-06-22T11:15:06;33.40;2.40
10386;DHT22;34307;51.332;12.334;2023-06-22T11:17:34;33.50;2.70
10386;DHT22;34307;51.332;12.334;2023-06-22T11:20:03;33.60;3.20
10386;DHT22;34307;51.332;12.334;2023-06-22T11:22:37;33.80;1.60
10386;DHT22;34307;51.332;12.334;2023-06-22T11:25:06;33.70;1.00
10386;DHT22;34307;51.332;12.334;2023-06-22T11:27:39;33.60;1.00
10386;DHT22;34307;51.332;12.334;2023-06-22T11:30:08;33.80;1.00
10386;DHT22;34307;51.332;12.334;2023-06-22T11:32:36;33.90;1.00
10386;DHT22;34307;51.332;12.334;2023-06-22T11:35:18;34.20;1.00
10386;DHT22;34307;51.332;12.334;2023-06-22T11:37:48;34.80;1.00
10386;DHT22;34307;51.332;12.334;2023-06-22T11:40:16;35.10;1.00
10386;DHT22;34307;51.332;12.334;2023-06-22T11:42:46;35.20;1.00
10386;DHT22;34307;51.332;12.334;2023-06-22T11:45:14;35.40;1.00
10386;DHT22;34307;51.332;12.334;2023-06-22T11:47:43;35.50;1.00
10386;DHT22;34307;51.332;12.334;2023-06-22T11:50:11;35.70;1.00
10386;DHT22;34307;51.332;12.334;2023-06-22T11:52:39;35.60;1.00
10386;DHT22;34307;51.332;12.334;2023-06-22T11:55:09;35.40;1.00
10386;DHT22;34307;51.332;12.334;2023-06-22T11:57:38;35.20;1.00
10386;DHT22;34307;51.332;12.334;2023-06-22T12:00:21;34.80;1.00
10386;DHT22;34307;51.332;12.334;2023-06-22T12:02:57;34.80;1.00
10386;DHT22;34307;51.332;12.334;2023-06-22T12:05:27;35.20;1.00
10386;DHT22;34307;51.332;12.334;2023-06-22T12:07:55;34.80;1.00
10386;DHT22;34307;51.332;12.334;2023-06-22T12:10:24;34.00;1.00
10386;DHT22;34307;51.332;12.334;2023-06-22T12:12:53;34.20;1.00
10386;DHT22;34307;51.332;12.334;2023-06-22T12:15:23;34.90;1.00
10386;DHT22;34307;51.332;12.334;2023-06-22T12:17:51;35.60;1.00
10386;DHT22;34307;51.332;12.334;2023-06-22T12:20:21;36.10;1.00
10386;DHT22;34307;51.332;12.334;2023-06-22T12:22:50;35.80;1.00
10386;DHT22;34307;51.332;12.334;2023-06-22T12:25:22;36.00;1.00
10386;DHT22;34307;51.332;12.334;2023-06-22T12:27:51;36.10;1.00
10386;DHT22;34307;51.332;12.334;2023-06-22T12:30:21;36.30;1.00
10386;DHT22;34307;51.332;12.334;2023-06-22T12:32:49;36.70;1.00
10386;DHT22;34307;51.332;12.334;2023-06-22T12:35:20;36.90;1.00
10386;DHT22;34307;51.332;12.334;2023-06-22T12:37:48;36.70;1.00
10386;DHT22;34307;51.332;12.334;2023-06-22T12:40:16;37.00;1.00
10386;DHT22;34307;51.332;12.334;2023-06-22T12:42:44;37.10;1.00
10386;DHT22;34307;51.332;12.334;2023-06-22T12:45:13;36.50;1.00
10386;DHT22;34307;51.332;12.334;2023-06-22T12:47:42;36.60;1.00
10386;DHT22;34307;51.332;12.334;2023-06-22T12:50:12;36.80;1.00
10386;DHT22;34307;51.332;12.334;2023-06-22T12:52:43;37.30;1.00
10386;DHT22;34307;51.332;12.334;2023-06-22T12:55:11;36.80;1.00
10386;DHT22;34307;51.332;12.334;2023-06-22T12:57:42;36.70;1.00
10386;DHT22;34307;51.332;12.334;2023-06-22T13:00:11;37.40;1.00
10386;DHT22;34307;51.332;12.334;2023-06-22T13:02:41;37.80;1.00
10386;DHT22;34307;51.332;12.334;2023-06-22T13:05:10;37.70;1.00
10386;DHT22;34307;51.332;12.334;2023-06-22T13:07:38;37.40;1.00
10386;DHT22;34307;51.332;12.334;2023-06-22T13:10:13;36.70;1.00
10386;DHT22;34307;51.332;12.334;2023-06-22T13:12:42;36.20;1.00
10386;DHT22;34307;51.332;12.334;2023-06-22T13:15:10;35.90;1.00
10386;DHT22;34307;51.332;12.334;2023-06-22T13:17:45;35.40;1.00
10386;DHT22;34307;51.332;12.334;2023-06-22T13:20:15;35.10;1.00
10386;DHT22;34307;51.332;12.334;2023-06-22T13:22:44;35.90;1.00
10386;DHT22;34307;51.332;12.334;2023-06-22T13:25:12;36.60;1.00
10386;DHT22;34307;51.332;12.334;2023-06-22T13:27:41;36.80;1.00
10386;DHT22;34307;51.332;12.334;2023-06-22T13:30:10;37.30;1.00
10386;DHT22;34307;51.332;12.334;2023-06-22T13:32:43;37.80;1.00
10386;DHT22;34307;51.332;12.334;2023-06-22T13:35:15;37.40;1.00
10386;DHT22;34307;51.332;12.334;2023-06-22T13:37:45;37.80;1.00
10386;DHT22;34307;51.332;12.334;2023-06-22T13:40:13;37.80;1.00
10386;DHT22;34307;51.332;12.334;2023-06-22T13:42:42;38.30;1.00
10386;DHT22;34307;51.332;12.334;2023-06-22T13:45:12;38.80;1.00
10386;DHT22;34307;51.332;12.334;2023-06-22T13:47:40;39.40;1.00
10386;DHT22;34307;51.332;12.334;2023-06-22T13:50:10;39.20;1.00
10386;DHT22;34307;51.332;12.334;2023-06-22T13:52:39;39.50;1.00
10386;DHT22;34307;51.332;12.334;2023-06-22T13:55:08;39.50;1.00
10386;DHT22;34307;51.332;12.334;2023-06-22T13:57:37;39.70;1.00
10386;DHT22;34307;51.332;12.334;2023-06-22T14:00:06;39.50;1.00
10386;DHT22;34307;51.332;12.334;2023-06-22T14:02:35;39.60;1.00
10386;DHT22;34307;51.332;12.334;2023-06-22T14:05:05;39.50;1.00
10386;DHT22;34307;51.332;12.334;2023-06-22T14:07:38;39.30;1.00
10386;DHT22;34307;51.332;12.334;2023-06-22T14:10:06;39.40;1.00
10386;DHT22;34307;51.332;12.334;2023-06-22T14:12:37;39.00;1.00
10386;DHT22;34307;51.332;12.334;2023-06-22T14:15:06;38.70;1.00
10386;DHT22;34307;51.332;12.334;2023-06-22T14:17:36;38.70;1.00
10386;DHT22;34307;51.332;12.334;2023-06-22T14:20:07;38.90;1.00
10386;DHT22;34307;51.332;12.334;2023-06-22T14:22:37;39.20;1.00
10386;DHT22;34307;51.332;12.334;2023-06-22T14:25:06;39.50;1.00
10386;DHT22;34307;51.332;12.334;2023-06-22T14:27:34;39.00;1.00
10386;DHT22;34307;51.332;12.334;2023-06-22T14:30:05;38.80;1.00
10386;DHT22;34307;51.332;12.334;2023-06-22T14:32:34;39.40;1.00
10386;DHT22;34307;51.332;12.334;2023-06-22T14:35:04;39.40;1.00
10386;DHT22;34307;51.332;12.334;2023-06-22T14:37:32;39.60;1.00
10386;DHT22;34307;51.332;12.334;2023-06-22T14:40:02;39.00;1.00
10386;DHT22;34307;51.332;12.334;2023-06-22T14:42:30;38.20;1.00
10386;DHT22;34307;51.332;12.334;2023-06-22T14:45:00;37.10;1.00
10386;DHT22;34307;51.332;12.334;2023-06-22T14:47:28;37.00;1.00
10386;DHT22;34307;51.332;12.334;2023-06-22T14:49:56;37.00;1.00
10386;DHT22;34307;51.332;12.334;2023-06-22T14:52:27;37.80;1.00
10386;DHT22;34307;51.332;12.334;2023-06-22T14:54:55;38.70;1.00
10386;DHT22;34307;51.332;12.334;2023-06-22T14:57:25;38.30;1.00
10386;DHT22;34307;51.332;12.334;2023-06-22T14:59:53;37.80;1.00
10386;DHT22;34307;51.332;12.334;2023-06-22T15:02:22;37.00;1.00
10386;DHT22;34307;51.332;12.334;2023-06-22T15:04:50;36.30;1.00
10386;DHT22;34307;51.332;12.334;2023-06-22T15:07:21;36.40;1.00
10386;DHT22;34307;51.332;12.334;2023-06-22T15:09:50;36.40;1.00
10386;DHT22;34307;51.332;12.334;2023-06-22T15:12:19;36.00;1.00
10386;DHT22;34307;51.332;12.334;2023-06-22T15:14:52;36.50;1.00
10386;DHT22;34307;51.332;12.334;2023-06-22T15:17:20;36.30;1.00
10386;DHT22;34307;51.332;12.334;2023-06-22T15:19:49;35.70;1.00
10386;DHT22;34307;51.332;12.334;2023-06-22T15:22:17;35.30;1.00
10386;DHT22;34307;51.332;12.334;2023-06-22T15:24:46;34.90;1.00
10386;DHT22;34307;51.332;12.334;2023-06-22T15:27:15;34.50;1.00
10386;DHT22;34307;51.332;12.334;2023-06-22T15:29:43;34.00;1.00
10386;DHT22;34307;51.332;12.334;2023-06-22T15:32:12;33.80;1.00
10386;DHT22;34307;51.332;12.334;2023-06-22T15:34:42;33.90;1.00